sensor_id;sensor_type;location;lat;lon;timestamp;temperature;humidity
67820;DHT22;54618;52.018;5.576;2023-01-10T00:00:27;18.20;50.10
67820;DHT22;54618;52.018;5.576;2023-01-10T00:02:59;18.20;50.20
67820;DHT22;54618;52.018;5.576;2023-01-10T00:05:24;18.10;50.10
67820;DHT22;54618;52.018;5.576;2023-01-10T00:07:50;18.10;50.10
67820;DHT22;54618;52.018;5.576;2023-01-10T00:10:15;18.10;50.10
67820;DHT22;54618;52.018;5.576;2023-01-10T00:12:41;18.10;50.20
67820;DHT22;54618;52.018;5.576;2023-01-10T00:15:25;18.10;50.20
67820;DHT22;54618;52.018;5.576;2023-01-10T00:17:51;18.10;50.30
67820;DHT22;54618;52.018;5.576;2023-01-10T00:20:16;18.10;50.20
67820;DHT22;54618;52.018;5.576;2023-01-10T00:22:42;18.10;50.30
67820;DHT22;54618;52.018;5.576;2023-01-10T00:25:09;18.00;50.20
67820;DHT22;54618;52.018;5.576;2023-01-10T00:27:35;18.00;50.20
67820;DHT22;54618;52.018;5.576;2023-01-10T00:30:02;18.00;50.20
67820;DHT22;54618;52.018;5.576;2023-01-10T00:32:39;18.00;50.20
67820;DHT22;54618;52.018;5.576;2023-01-10T00:35:05;18.00;50.20
67820;DHT22;54618;52.018;5.576;2023-01-10T00:37:31;18.00;50.20
67820;DHT22;54618;52.018;5.576;2023-01-10T00:39:56;18.00;50.20
67820;DHT22;54618;52.018;5.576;2023-01-10T00:42:23;18.00;50.30
67820;DHT22;54618;52.018;5.576;2023-01-10T00:45:07;17.90;50.20
67820;DHT22;54618;52.018;5.576;2023-01-10T00:47:33;18.00;50.30
67820;DHT22;54618;52.018;5.576;2023-01-10T00:49:58;17.90;50.20
67820;DHT22;54618;52.018;5.576;2023-01-10T00:52:24;17.90;50.20
67820;DHT22;54618;52.018;5.576;2023-01-10T00:54:49;17.90;50.30
67820;DHT22;54618;52.018;5.576;2023-01-10T00:57:15;17.90;50.30
67820;DHT22;54618;52.018;5.576;2023-01-10T00:59:40;17.90;50.30
67820;DHT22;54618;52.018;5.576;2023-01-10T01:02:06;17.90;50.30
67820;DHT22;54618;52.018;5.576;2023-01-10T01:04:32;17.90;50.30
67820;DHT22;54618;52.018;5.576;2023-01-10T01:07:00;17.90;50.30
67820;DHT22;54618;52.018;5.576;2023-01-10T01:09:27;17.80;50.30
67820;DHT22;54618;52.018;5.576;2023-01-10T01:11:52;17.80;50.20
67820;DHT22;54618;52.018;5.576;2023-01-10T01:14:18;17.80;50.20
67820;DHT22;54618;52.018;5.576;2023-01-10T01:16:43;17.80;50.30
67820;DHT22;54618;52.018;5.576;2023-01-10T01:19:09;17.80;50.30
67820;DHT22;54618;52.018;5.576;2023-01-10T01:21:35;17.80;50.30
67820;DHT22;54618;52.018;5.576;2023-01-10T01:24:01;17.80;50.30
67820;DHT22;54618;52.018;5.576;2023-01-10T01:26:27;17.80;50.30
67820;DHT22;54618;52.018;5.576;2023-01-10T01:28:52;17.80;50.30
67820;DHT22;54618;52.018;5.576;2023-01-10T01:31:18;17.80;50.30
67820;DHT22;54618;52.018;5.576;2023-01-10T01:33:43;17.80;50.30
67820;DHT22;54618;52.018;5.576;2023-01-10T01:36:10;17.80;50.30
67820;DHT22;54618;52.018;5.576;2023-01-10T01:38:37;17.70;50.20
67820;DHT22;54618;52.018;5.576;2023-01-10T01:41:03;17.70;50.30
67820;DHT22;54618;52.018;5.576;2023-01-10T01:44:09;17.70;50.30
67820;DHT22;54618;52.018;5.576;2023-01-10T01:46:37;17.70;50.40
67820;DHT22;54618;52.018;5.576;2023-01-10T01:49:03;17.70;50.30
67820;DHT22;54618;52.018;5.576;2023-01-10T01:51:32;17.70;50.30
67820;DHT22;54618;52.018;5.576;2023-01-10T01:54:01;17.70;50.30
67820;DHT22;54618;52.018;5.576;2023-01-10T01:56:38;17.70;50.30
67820;DHT22;54618;52.018;5.576;2023-01-10T01:59:45;17.70;50.40
67820;DHT22;54618;52.018;5.576;2023-01-10T02:02:22;17.70;50.60
67820;DHT22;54618;52.018;5.576;2023-01-10T02:04:55;17.60;50.30
67820;DHT22;54618;52.018;5.576;2023-01-10T02:07:23;17.60;50.30
67820;DHT22;54618;52.018;5.576;2023-01-10T02:12:32;17.60;50.30
67820;DHT22;54618;52.018;5.576;2023-01-10T02:14:58;17.60;50.30
67820;DHT22;54618;52.018;5.576;2023-01-10T02:17:24;17.60;50.30
67820;DHT22;54618;52.018;5.576;2023-01-10T02:19:58;17.60;50.30
67820;DHT22;54618;52.018;5.576;2023-01-10T02:34:28;17.60;50.50
67820;DHT22;54618;52.018;5.576;2023-01-10T02:39:35;17.50;50.30
67820;DHT22;54618;52.018;5.576;2023-01-10T02:42:06;17.50;50.30
67820;DHT22;54618;52.018;5.576;2023-01-10T02:44:43;17.50;50.30
67820;DHT22;54618;52.018;5.576;2023-01-10T02:47:12;17.50;50.40
67820;DHT22;54618;52.018;5.576;2023-01-10T02:49:48;17.50;50.40
67820;DHT22;54618;52.018;5.576;2023-01-10T02:52:27;17.50;50.40
67820;DHT22;54618;52.018;5.576;2023-01-10T02:54:59;17.50;50.40
67820;DHT22;54618;52.018;5.576;2023-01-10T03:03:07;17.40;50.40
67820;DHT22;54618;52.018;5.576;2023-01-10T03:09:04;17.50;50.50
67820;DHT22;54618;52.018;5.576;2023-01-10T03:11:35;17.70;50.40
67820;DHT22;54618;52.018;5.576;2023-01-10T03:14:17;17.90;50.00
67820;DHT22;54618;52.018;5.576;2023-01-10T03:16:50;18.10;49.60
67820;DHT22;54618;52.018;5.576;2023-01-10T03:19:19;18.30;49.40
67820;DHT22;54618;52.018;5.576;2023-01-10T03:21:46;18.30;49.20
67820;DHT22;54618;52.018;5.576;2023-01-10T03:24:17;18.30;49.20
67820;DHT22;54618;52.018;5.576;2023-01-10T03:26:51;18.30;49.20
67820;DHT22;54618;52.018;5.576;2023-01-10T03:29:25;18.30;49.20
67820;DHT22;54618;52.018;5.576;2023-01-10T03:31:59;18.20;49.20
67820;DHT22;54618;52.018;5.576;2023-01-10T03:34:28;18.20;49.30
67820;DHT22;54618;52.018;5.576;2023-01-10T03:39:57;18.40;49.80
67820;DHT22;54618;52.018;5.576;2023-01-10T03:45:54;18.60;49.00
67820;DHT22;54618;52.018;5.576;2023-01-10T03:48:25;18.60;48.90
67820;DHT22;54618;52.018;5.576;2023-01-10T03:50:52;18.70;48.80
67820;DHT22;54618;52.018;5.576;2023-01-10T03:53:18;18.70;48.70
67820;DHT22;54618;52.018;5.576;2023-01-10T03:55:44;18.80;48.70
67820;DHT22;54618;52.018;5.576;2023-01-10T03:58:10;18.80;48.70
67820;DHT22;54618;52.018;5.576;2023-01-10T04:00:35;18.80;48.60
67820;DHT22;54618;52.018;5.576;2023-01-10T04:03:01;18.80;48.70
67820;DHT22;54618;52.018;5.576;2023-01-10T04:05:27;18.70;48.60
67820;DHT22;54618;52.018;5.576;2023-01-10T04:07:53;18.70;48.70
67820;DHT22;54618;52.018;5.576;2023-01-10T04:10:18;18.70;48.70
67820;DHT22;54618;52.018;5.576;2023-01-10T04:12:45;18.70;48.70
67820;DHT22;54618;52.018;5.576;2023-01-10T04:15:10;18.60;48.80
67820;DHT22;54618;52.018;5.576;2023-01-10T04:17:36;18.60;48.80
67820;DHT22;54618;52.018;5.576;2023-01-10T04:20:02;18.60;48.90
67820;DHT22;54618;52.018;5.576;2023-01-10T04:22:28;18.60;48.90
67820;DHT22;54618;52.018;5.576;2023-01-10T04:24:53;18.50;49.10
67820;DHT22;54618;52.018;5.576;2023-01-10T04:27:19;18.50;48.90
67820;DHT22;54618;52.018;5.576;2023-01-10T04:29:45;18.50;48.90
67820;DHT22;54618;52.018;5.576;2023-01-10T04:32:11;18.50;48.90
67820;DHT22;54618;52.018;5.576;2023-01-10T04:34:37;18.50;48.90
67820;DHT22;54618;52.018;5.576;2023-01-10T04:37:02;18.50;49.00
67820;DHT22;54618;52.018;5.576;2023-01-10T04:39:28;18.50;48.90
67820;DHT22;54618;52.018;5.576;2023-01-10T04:41:53;18.50;49.00
67820;DHT22;54618;52.018;5.576;2023-01-10T04:44:19;18.50;49.00
67820;DHT22;54618;52.018;5.576;2023-01-10T04:46:44;18.50;49.00
67820;DHT22;54618;52.018;5.576;2023-01-10T04:49:10;18.50;49.00
67820;DHT22;54618;52.018;5.576;2023-01-10T04:51:36;18.50;49.00
67820;DHT22;54618;52.018;5.576;2023-01-10T04:54:02;18.50;49.00
67820;DHT22;54618;52.018;5.576;2023-01-10T04:56:27;18.50;48.90
67820;DHT22;54618;52.018;5.576;2023-01-10T04:58:53;18.40;48.90
67820;DHT22;54618;52.018;5.576;2023-01-10T05:01:20;18.40;48.90
67820;DHT22;54618;52.018;5.576;2023-01-10T05:03:47;18.40;48.90
67820;DHT22;54618;52.018;5.576;2023-01-10T05:06:13;18.40;48.90
67820;DHT22;54618;52.018;5.576;2023-01-10T05:08:39;18.40;48.90
67820;DHT22;54618;52.018;5.576;2023-01-10T05:11:05;18.40;48.90
67820;DHT22;54618;52.018;5.576;2023-01-10T05:13:30;18.40;48.90
67820;DHT22;54618;52.018;5.576;2023-01-10T05:15:56;18.40;48.90
67820;DHT22;54618;52.018;5.576;2023-01-10T05:18:26;18.40;48.90
67820;DHT22;54618;52.018;5.576;2023-01-10T05:20:52;18.40;48.90
67820;DHT22;54618;52.018;5.576;2023-01-10T05:23:18;18.40;48.90
67820;DHT22;54618;52.018;5.576;2023-01-10T05:25:43;18.40;48.90
67820;DHT22;54618;52.018;5.576;2023-01-10T05:28:09;18.40;48.90
67820;DHT22;54618;52.018;5.576;2023-01-10T05:30:35;18.40;48.90
67820;DHT22;54618;52.018;5.576;2023-01-10T05:33:03;18.50;48.90
67820;DHT22;54618;52.018;5.576;2023-01-10T05:35:28;18.40;48.80
67820;DHT22;54618;52.018;5.576;2023-01-10T05:37:54;18.40;48.90
67820;DHT22;54618;52.018;5.576;2023-01-10T05:40:20;18.40;48.90
67820;DHT22;54618;52.018;5.576;2023-01-10T05:42:45;18.40;48.90
67820;DHT22;54618;52.018;5.576;2023-01-10T05:45:11;18.40;48.90
67820;DHT22;54618;52.018;5.576;2023-01-10T05:47:37;18.40;48.90
67820;DHT22;54618;52.018;5.576;2023-01-10T05:50:03;18.40;48.90
67820;DHT22;54618;52.018;5.576;2023-01-10T05:52:28;18.40;48.90
67820;DHT22;54618;52.018;5.576;2023-01-10T05:54:54;18.40;49.50
67820;DHT22;54618;52.018;5.576;2023-01-10T05:57:19;18.40;48.90
67820;DHT22;54618;52.018;5.576;2023-01-10T05:59:46;18.40;48.90
67820;DHT22;54618;52.018;5.576;2023-01-10T06:02:12;18.40;48.90
67820;DHT22;54618;52.018;5.576;2023-01-10T06:04:37;18.40;48.90
67820;DHT22;54618;52.018;5.576;2023-01-10T06:07:03;18.40;48.90
67820;DHT22;54618;52.018;5.576;2023-01-10T06:09:28;18.40;48.90
67820;DHT22;54618;52.018;5.576;2023-01-10T06:11:54;18.40;48.90
67820;DHT22;54618;52.018;5.576;2023-01-10T06:14:19;18.40;48.90
67820;DHT22;54618;52.018;5.576;2023-01-10T06:16:46;18.30;48.90
67820;DHT22;54618;52.018;5.576;2023-01-10T06:19:11;18.40;48.90
67820;DHT22;54618;52.018;5.576;2023-01-10T06:21:37;18.30;48.80
67820;DHT22;54618;52.018;5.576;2023-01-10T06:24:02;18.20;49.00
67820;DHT22;54618;52.018;5.576;2023-01-10T06:26:28;18.10;49.00
67820;DHT22;54618;52.018;5.576;2023-01-10T06:28:53;18.00;49.20
67820;DHT22;54618;52.018;5.576;2023-01-10T06:31:19;17.90;49.20
67820;DHT22;54618;52.018;5.576;2023-01-10T06:33:44;17.80;49.30
67820;DHT22;54618;52.018;5.576;2023-01-10T06:36:10;17.80;49.50
67820;DHT22;54618;52.018;5.576;2023-01-10T06:38:36;18.00;49.60
67820;DHT22;54618;52.018;5.576;2023-01-10T06:41:02;18.60;49.30
67820;DHT22;54618;52.018;5.576;2023-01-10T06:43:39;19.10;48.40
67820;DHT22;54618;52.018;5.576;2023-01-10T06:46:05;19.70;47.60
67820;DHT22;54618;52.018;5.576;2023-01-10T06:48:34;20.10;46.90
67820;DHT22;54618;52.018;5.576;2023-01-10T06:50:59;20.50;46.40
67820;DHT22;54618;52.018;5.576;2023-01-10T06:53:25;20.80;46.10
67820;DHT22;54618;52.018;5.576;2023-01-10T06:55:50;21.00;45.80
67820;DHT22;54618;52.018;5.576;2023-01-10T06:58:16;21.10;45.50
67820;DHT22;54618;52.018;5.576;2023-01-10T07:00:42;21.30;45.50
67820;DHT22;54618;52.018;5.576;2023-01-10T07:03:08;21.50;45.30
67820;DHT22;54618;52.018;5.576;2023-01-10T07:05:34;21.50;45.20
67820;DHT22;54618;52.018;5.576;2023-01-10T07:07:59;21.60;45.90
67820;DHT22;54618;52.018;5.576;2023-01-10T07:10:26;21.60;45.10
67820;DHT22;54618;52.018;5.576;2023-01-10T07:12:54;21.70;45.20
67820;DHT22;54618;52.018;5.576;2023-01-10T07:15:20;21.80;45.30
67820;DHT22;54618;52.018;5.576;2023-01-10T07:17:45;21.80;45.20
67820;DHT22;54618;52.018;5.576;2023-01-10T07:20:11;21.90;45.10
67820;DHT22;54618;52.018;5.576;2023-01-10T07:22:37;21.90;45.10
67820;DHT22;54618;52.018;5.576;2023-01-10T07:25:03;21.90;45.30
67820;DHT22;54618;52.018;5.576;2023-01-10T07:27:30;21.80;45.20
67820;DHT22;54618;52.018;5.576;2023-01-10T07:29:56;21.80;45.50
67820;DHT22;54618;52.018;5.576;2023-01-10T07:32:22;21.90;46.10
67820;DHT22;54618;52.018;5.576;2023-01-10T07:34:48;21.90;45.50
67820;DHT22;54618;52.018;5.576;2023-01-10T07:37:14;21.90;45.40
67820;DHT22;54618;52.018;5.576;2023-01-10T07:39:39;21.90;45.40
67820;DHT22;54618;52.018;5.576;2023-01-10T07:42:09;21.90;45.40
67820;DHT22;54618;52.018;5.576;2023-01-10T07:44:35;22.00;45.60
67820;DHT22;54618;52.018;5.576;2023-01-10T07:47:00;22.00;45.60
67820;DHT22;54618;52.018;5.576;2023-01-10T07:49:26;22.00;45.30
67820;DHT22;54618;52.018;5.576;2023-01-10T07:51:52;22.10;45.50
67820;DHT22;54618;52.018;5.576;2023-01-10T07:54:18;22.10;45.30
67820;DHT22;54618;52.018;5.576;2023-01-10T07:56:43;22.10;45.30
67820;DHT22;54618;52.018;5.576;2023-01-10T07:59:09;22.20;45.20
67820;DHT22;54618;52.018;5.576;2023-01-10T08:01:34;22.20;45.20
67820;DHT22;54618;52.018;5.576;2023-01-10T08:04:00;22.20;45.30
67820;DHT22;54618;52.018;5.576;2023-01-10T08:06:25;22.20;45.20
67820;DHT22;54618;52.018;5.576;2023-01-10T08:08:51;22.20;45.40
67820;DHT22;54618;52.018;5.576;2023-01-10T08:11:16;22.10;45.10
67820;DHT22;54618;52.018;5.576;2023-01-10T08:13:42;22.10;45.30
67820;DHT22;54618;52.018;5.576;2023-01-10T08:16:08;22.10;45.40
67820;DHT22;54618;52.018;5.576;2023-01-10T08:18:33;22.10;45.40
67820;DHT22;54618;52.018;5.576;2023-01-10T08:20:59;22.10;45.40
67820;DHT22;54618;52.018;5.576;2023-01-10T08:23:25;22.10;45.40
67820;DHT22;54618;52.018;5.576;2023-01-10T08:25:51;22.10;45.30
67820;DHT22;54618;52.018;5.576;2023-01-10T08:28:17;22.20;45.40
67820;DHT22;54618;52.018;5.576;2023-01-10T08:30:43;22.20;45.70
67820;DHT22;54618;52.018;5.576;2023-01-10T08:33:09;22.10;45.90
67820;DHT22;54618;52.018;5.576;2023-01-10T08:35:40;21.90;46.10
67820;DHT22;54618;52.018;5.576;2023-01-10T08:38:07;21.80;46.10
67820;DHT22;54618;52.018;5.576;2023-01-10T08:40:33;21.80;46.30
67820;DHT22;54618;52.018;5.576;2023-01-10T08:43:00;21.80;46.30
67820;DHT22;54618;52.018;5.576;2023-01-10T08:45:26;21.90;46.30
67820;DHT22;54618;52.018;5.576;2023-01-10T08:47:53;21.90;46.30
67820;DHT22;54618;52.018;5.576;2023-01-10T08:50:18;21.90;46.30
67820;DHT22;54618;52.018;5.576;2023-01-10T08:52:44;21.90;46.30
67820;DHT22;54618;52.018;5.576;2023-01-10T08:55:09;21.90;46.30
67820;DHT22;54618;52.018;5.576;2023-01-10T08:57:35;21.90;46.50
67820;DHT22;54618;52.018;5.576;2023-01-10T09:00:01;21.90;46.60
67820;DHT22;54618;52.018;5.576;2023-01-10T09:02:26;21.90;46.60
67820;DHT22;54618;52.018;5.576;2023-01-10T09:04:52;21.90;46.60
67820;DHT22;54618;52.018;5.576;2023-01-10T09:07:17;21.90;46.60
67820;DHT22;54618;52.018;5.576;2023-01-10T09:09:43;21.90;46.60
67820;DHT22;54618;52.018;5.576;2023-01-10T09:12:08;21.90;46.60
67820;DHT22;54618;52.018;5.576;2023-01-10T09:14:52;21.90;46.60
67820;DHT22;54618;52.018;5.576;2023-01-10T09:17:18;21.90;46.50
67820;DHT22;54618;52.018;5.576;2023-01-10T09:19:43;21.90;46.40
67820;DHT22;54618;52.018;5.576;2023-01-10T09:22:09;21.90;46.40
67820;DHT22;54618;52.018;5.576;2023-01-10T09:24:35;22.00;46.40
67820;DHT22;54618;52.018;5.576;2023-01-10T09:27:02;22.00;46.40
67820;DHT22;54618;52.018;5.576;2023-01-10T09:29:27;22.00;46.40
67820;DHT22;54618;52.018;5.576;2023-01-10T09:31:53;22.00;46.30
67820;DHT22;54618;52.018;5.576;2023-01-10T09:34:18;22.00;46.30
67820;DHT22;54618;52.018;5.576;2023-01-10T09:36:44;22.00;46.20
67820;DHT22;54618;52.018;5.576;2023-01-10T09:39:09;22.00;46.30
67820;DHT22;54618;52.018;5.576;2023-01-10T09:44:18;22.00;46.20
67820;DHT22;54618;52.018;5.576;2023-01-10T09:51:48;22.10;46.10
67820;DHT22;54618;52.018;5.576;2023-01-10T09:54:33;22.10;46.10
67820;DHT22;54618;52.018;5.576;2023-01-10T09:57:01;22.10;46.00
67820;DHT22;54618;52.018;5.576;2023-01-10T09:59:46;22.10;46.10
67820;DHT22;54618;52.018;5.576;2023-01-10T10:02:31;22.10;45.90
67820;DHT22;54618;52.018;5.576;2023-01-10T10:05:09;22.10;46.00
67820;DHT22;54618;52.018;5.576;2023-01-10T10:07:36;22.10;46.00
67820;DHT22;54618;52.018;5.576;2023-01-10T10:10:04;22.00;46.00
67820;DHT22;54618;52.018;5.576;2023-01-10T10:12:46;22.10;46.00
67820;DHT22;54618;52.018;5.576;2023-01-10T10:15:27;22.10;45.80
67820;DHT22;54618;52.018;5.576;2023-01-10T10:21:02;22.20;46.00
67820;DHT22;54618;52.018;5.576;2023-01-10T10:24:15;22.20;45.80
67820;DHT22;54618;52.018;5.576;2023-01-10T10:42:11;22.30;46.00
67820;DHT22;54618;52.018;5.576;2023-01-10T10:51:50;22.20;45.30
67820;DHT22;54618;52.018;5.576;2023-01-10T10:54:53;22.20;45.50
67820;DHT22;54618;52.018;5.576;2023-01-10T11:00:25;22.30;45.80
67820;DHT22;54618;52.018;5.576;2023-01-10T11:05:47;22.30;45.70
67820;DHT22;54618;52.018;5.576;2023-01-10T11:08:14;22.30;45.80
67820;DHT22;54618;52.018;5.576;2023-01-10T11:10:49;22.30;45.70
67820;DHT22;54618;52.018;5.576;2023-01-10T11:15:59;22.30;45.60
67820;DHT22;54618;52.018;5.576;2023-01-10T11:18:27;22.30;45.70
67820;DHT22;54618;52.018;5.576;2023-01-10T11:26:07;22.30;45.60
67820;DHT22;54618;52.018;5.576;2023-01-10T11:28:34;22.30;45.70
67820;DHT22;54618;52.018;5.576;2023-01-10T11:31:01;22.30;46.00
67820;DHT22;54618;52.018;5.576;2023-01-10T11:33:31;22.30;45.70
67820;DHT22;54618;52.018;5.576;2023-01-10T11:36:00;22.30;45.60
67820;DHT22;54618;52.018;5.576;2023-01-10T11:38:27;22.30;45.70
67820;DHT22;54618;52.018;5.576;2023-01-10T11:40:57;22.30;45.70
67820;DHT22;54618;52.018;5.576;2023-01-10T11:43:29;22.30;45.70
67820;DHT22;54618;52.018;5.576;2023-01-10T11:45:57;22.30;45.50
67820;DHT22;54618;52.018;5.576;2023-01-10T11:48:41;22.40;45.60
67820;DHT22;54618;52.018;5.576;2023-01-10T11:51:24;22.40;45.50
67820;DHT22;54618;52.018;5.576;2023-01-10T11:54:12;22.40;45.40
67820;DHT22;54618;52.018;5.576;2023-01-10T11:56:40;22.40;45.70
67820;DHT22;54618;52.018;5.576;2023-01-10T11:59:16;22.40;45.60
67820;DHT22;54618;52.018;5.576;2023-01-10T12:01:46;22.50;45.60
67820;DHT22;54618;52.018;5.576;2023-01-10T12:04:19;22.40;45.60
67820;DHT22;54618;52.018;5.576;2023-01-10T12:06:49;22.50;45.40
67820;DHT22;54618;52.018;5.576;2023-01-10T12:09:38;22.50;45.80
67820;DHT22;54618;52.018;5.576;2023-01-10T12:12:13;22.40;45.90
67820;DHT22;54618;52.018;5.576;2023-01-10T12:14:40;22.30;46.20
67820;DHT22;54618;52.018;5.576;2023-01-10T12:17:09;22.10;46.40
67820;DHT22;54618;52.018;5.576;2023-01-10T12:19:35;22.00;46.60
67820;DHT22;54618;52.018;5.576;2023-01-10T12:22:03;22.00;46.60
67820;DHT22;54618;52.018;5.576;2023-01-10T12:24:33;22.00;46.60
67820;DHT22;54618;52.018;5.576;2023-01-10T12:27:04;22.10;46.60
67820;DHT22;54618;52.018;5.576;2023-01-10T12:29:44;22.20;46.60
67820;DHT22;54618;52.018;5.576;2023-01-10T12:32:18;22.20;46.40
67820;DHT22;54618;52.018;5.576;2023-01-10T12:34:49;22.20;46.40
67820;DHT22;54618;52.018;5.576;2023-01-10T12:40:56;22.20;46.40
67820;DHT22;54618;52.018;5.576;2023-01-10T12:46:08;22.30;46.40
67820;DHT22;54618;52.018;5.576;2023-01-10T12:48:48;22.30;46.30
67820;DHT22;54618;52.018;5.576;2023-01-10T12:51:19;22.30;46.20
67820;DHT22;54618;52.018;5.576;2023-01-10T12:53:53;22.30;46.20
67820;DHT22;54618;52.018;5.576;2023-01-10T12:56:19;22.30;46.20
67820;DHT22;54618;52.018;5.576;2023-01-10T12:58:53;22.30;46.20
67820;DHT22;54618;52.018;5.576;2023-01-10T13:01:23;22.30;46.10
67820;DHT22;54618;52.018;5.576;2023-01-10T13:04:02;22.30;46.10
67820;DHT22;54618;52.018;5.576;2023-01-10T13:06:35;22.30;46.00
67820;DHT22;54618;52.018;5.576;2023-01-10T13:09:07;22.30;46.00
67820;DHT22;54618;52.018;5.576;2023-01-10T13:12:01;22.30;46.00
67820;DHT22;54618;52.018;5.576;2023-01-10T13:22:40;22.00;46.20
67820;DHT22;54618;52.018;5.576;2023-01-10T13:25:19;22.10;46.20
67820;DHT22;54618;52.018;5.576;2023-01-10T13:27:46;22.20;46.10
67820;DHT22;54618;52.018;5.576;2023-01-10T13:30:34;22.50;45.90
67820;DHT22;54618;52.018;5.576;2023-01-10T13:33:07;22.80;45.50
67820;DHT22;54618;52.018;5.576;2023-01-10T13:35:43;23.20;45.10
67820;DHT22;54618;52.018;5.576;2023-01-10T13:38:25;23.40;44.80
67820;DHT22;54618;52.018;5.576;2023-01-10T13:41:05;23.50;44.70
67820;DHT22;54618;52.018;5.576;2023-01-10T13:51:17;23.00;45.20
67820;DHT22;54618;52.018;5.576;2023-01-10T13:53:55;22.90;45.50
67820;DHT22;54618;52.018;5.576;2023-01-10T13:56:31;22.90;45.50
67820;DHT22;54618;52.018;5.576;2023-01-10T13:58:57;22.80;45.60
67820;DHT22;54618;52.018;5.576;2023-01-10T14:01:43;22.70;45.70
67820;DHT22;54618;52.018;5.576;2023-01-10T14:04:32;22.70;45.80
67820;DHT22;54618;52.018;5.576;2023-01-10T14:07:01;22.70;45.80
67820;DHT22;54618;52.018;5.576;2023-01-10T14:11:58;22.60;45.70
67820;DHT22;54618;52.018;5.576;2023-01-10T14:14:27;22.60;45.80
67820;DHT22;54618;52.018;5.576;2023-01-10T14:16:56;22.60;45.80
67820;DHT22;54618;52.018;5.576;2023-01-10T14:19:28;22.60;45.70
67820;DHT22;54618;52.018;5.576;2023-01-10T14:21:57;22.60;45.70
67820;DHT22;54618;52.018;5.576;2023-01-10T14:24:30;22.50;45.70
67820;DHT22;54618;52.018;5.576;2023-01-10T14:27:00;22.50;45.80
67820;DHT22;54618;52.018;5.576;2023-01-10T14:29:32;22.50;45.80
67820;DHT22;54618;52.018;5.576;2023-01-10T14:31:59;22.50;45.80
67820;DHT22;54618;52.018;5.576;2023-01-10T14:34:27;22.40;45.80
67820;DHT22;54618;52.018;5.576;2023-01-10T14:39:22;22.40;45.80
67820;DHT22;54618;52.018;5.576;2023-01-10T14:41:51;22.40;45.80
67820;DHT22;54618;52.018;5.576;2023-01-10T14:44:23;22.40;45.80
67820;DHT22;54618;52.018;5.576;2023-01-10T14:46:53;22.40;45.70
67820;DHT22;54618;52.018;5.576;2023-01-10T14:49:34;22.60;45.60
67820;DHT22;54618;52.018;5.576;2023-01-10T14:52:18;22.80;45.30
67820;DHT22;54618;52.018;5.576;2023-01-10T14:54:45;23.10;45.00
67820;DHT22;54618;52.018;5.576;2023-01-10T14:57:17;23.30;44.80
67820;DHT22;54618;52.018;5.576;2023-01-10T14:59:43;23.40;44.70
67820;DHT22;54618;52.018;5.576;2023-01-10T15:04:52;23.60;44.50
67820;DHT22;54618;52.018;5.576;2023-01-10T15:07:19;23.70;44.20
67820;DHT22;54618;52.018;5.576;2023-01-10T15:09:55;23.70;44.40
67820;DHT22;54618;52.018;5.576;2023-01-10T15:12:23;23.80;44.30
67820;DHT22;54618;52.018;5.576;2023-01-10T15:15:00;23.90;44.30
67820;DHT22;54618;52.018;5.576;2023-01-10T15:17:26;23.90;44.20
67820;DHT22;54618;52.018;5.576;2023-01-10T15:19:52;24.00;44.20
67820;DHT22;54618;52.018;5.576;2023-01-10T15:25:12;24.10;44.20
67820;DHT22;54618;52.018;5.576;2023-01-10T15:27:50;24.10;44.00
67820;DHT22;54618;52.018;5.576;2023-01-10T15:30:25;24.10;44.20
67820;DHT22;54618;52.018;5.576;2023-01-10T15:32:57;24.10;44.20
67820;DHT22;54618;52.018;5.576;2023-01-10T15:35:27;24.00;44.20
67820;DHT22;54618;52.018;5.576;2023-01-10T15:37:56;24.00;44.30
67820;DHT22;54618;52.018;5.576;2023-01-10T15:40:31;24.00;44.30
67820;DHT22;54618;52.018;5.576;2023-01-10T15:43:25;23.90;44.20
67820;DHT22;54618;52.018;5.576;2023-01-10T15:45:52;23.90;44.20
67820;DHT22;54618;52.018;5.576;2023-01-10T15:48:39;23.90;44.30
67820;DHT22;54618;52.018;5.576;2023-01-10T15:51:14;23.90;45.00
67820;DHT22;54618;52.018;5.576;2023-01-10T15:54:00;23.80;44.40
67820;DHT22;54618;52.018;5.576;2023-01-10T15:57:06;23.90;44.30
67820;DHT22;54618;52.018;5.576;2023-01-10T16:04:27;23.90;44.10
67820;DHT22;54618;52.018;5.576;2023-01-10T16:07:05;23.90;44.10
67820;DHT22;54618;52.018;5.576;2023-01-10T16:09:32;23.90;44.10
67820;DHT22;54618;52.018;5.576;2023-01-10T16:11:58;23.80;44.30
67820;DHT22;54618;52.018;5.576;2023-01-10T16:14:42;23.70;44.40
67820;DHT22;54618;52.018;5.576;2023-01-10T16:17:08;23.50;44.50
67820;DHT22;54618;52.018;5.576;2023-01-10T16:19:35;23.30;44.60
67820;DHT22;54618;52.018;5.576;2023-01-10T16:22:01;23.20;44.70
67820;DHT22;54618;52.018;5.576;2023-01-10T16:24:31;23.20;44.70
67820;DHT22;54618;52.018;5.576;2023-01-10T16:27:01;23.30;44.60
67820;DHT22;54618;52.018;5.576;2023-01-10T16:29:27;23.40;44.40
67820;DHT22;54618;52.018;5.576;2023-01-10T16:31:53;23.60;44.30
67820;DHT22;54618;52.018;5.576;2023-01-10T16:34:19;23.70;44.20
67820;DHT22;54618;52.018;5.576;2023-01-10T16:36:45;23.80;44.10
67820;DHT22;54618;52.018;5.576;2023-01-10T16:39:16;23.70;44.10
67820;DHT22;54618;52.018;5.576;2023-01-10T16:41:43;23.30;44.30
67820;DHT22;54618;52.018;5.576;2023-01-10T16:44:28;23.10;44.80
67820;DHT22;54618;52.018;5.576;2023-01-10T16:46:54;22.80;45.10
67820;DHT22;54618;52.018;5.576;2023-01-10T16:49:20;22.60;45.40
67820;DHT22;54618;52.018;5.576;2023-01-10T16:51:46;22.40;45.70
67820;DHT22;54618;52.018;5.576;2023-01-10T16:54:14;22.20;45.80
67820;DHT22;54618;52.018;5.576;2023-01-10T16:56:40;22.00;46.00
67820;DHT22;54618;52.018;5.576;2023-01-10T16:59:06;21.90;46.20
67820;DHT22;54618;52.018;5.576;2023-01-10T17:01:41;21.80;46.30
67820;DHT22;54618;52.018;5.576;2023-01-10T17:04:11;21.70;46.50
67820;DHT22;54618;52.018;5.576;2023-01-10T17:06:39;21.60;46.60
67820;DHT22;54618;52.018;5.576;2023-01-10T17:09:06;21.40;46.70
67820;DHT22;54618;52.018;5.576;2023-01-10T17:11:39;21.30;46.70
67820;DHT22;54618;52.018;5.576;2023-01-10T17:14:06;21.20;47.50
67820;DHT22;54618;52.018;5.576;2023-01-10T17:16:33;21.10;47.00
67820;DHT22;54618;52.018;5.576;2023-01-10T17:18:59;21.00;47.10
67820;DHT22;54618;52.018;5.576;2023-01-10T17:21:24;20.80;47.10
67820;DHT22;54618;52.018;5.576;2023-01-10T17:23:51;20.70;47.20
67820;DHT22;54618;52.018;5.576;2023-01-10T17:26:17;20.60;47.30
67820;DHT22;54618;52.018;5.576;2023-01-10T17:28:43;20.50;47.40
67820;DHT22;54618;52.018;5.576;2023-01-10T17:31:14;20.50;47.60
67820;DHT22;54618;52.018;5.576;2023-01-10T17:33:39;20.40;47.40
67820;DHT22;54618;52.018;5.576;2023-01-10T17:36:05;20.30;47.30
67820;DHT22;54618;52.018;5.576;2023-01-10T17:38:31;20.20;47.30
67820;DHT22;54618;52.018;5.576;2023-01-10T17:40:58;20.20;47.30